createdAt,value
2023-07-02T01:49:07.276Z,97620.88
2023-07-02T01:52:00.192Z,97608.41
2023-07-02T02:59:31.656Z,97594.34
2023-07-02T03:02:00.468Z,97612.75
2023-07-02T03:14:27.862Z,97602.16
2023-07-02T03:16:57.056Z,97628.44
2023-07-02T03:19:50.901Z,97654.72
2023-07-02T03:23:09.779Z,97642.56
2023-07-02T03:30:15.548Z,97594.34
2023-07-02T03:33:34.889Z,97619.28
2023-07-02T03:41:23.513Z,97625.75
2023-07-02T03:43:52.004Z,97639.84
2023-07-02T03:46:20.421Z,97620.88
2023-07-02T03:48:48.724Z,97626.31
2023-07-02T03:51:20.891Z,97625.22
2023-07-02T03:53:50.590Z,97662.03
2023-07-02T03:56:18.401Z,97658.78
2023-07-02T03:58:51.265Z,97637.34
2023-07-02T05:42:56.456Z,97667.31
2023-07-02T05:45:29.133Z,97688.50
2023-07-02T05:48:01.268Z,97676.03
2023-07-02T05:50:32.408Z,97708.47
2023-07-02T05:56:08.757Z,97675.47
2023-07-02T05:58:48.638Z,97684.34
2023-07-02T06:01:25.066Z,97679.72
2023-07-02T06:04:00.777Z,97681.06
2023-07-02T06:06:33.086Z,97685.59
2023-07-02T06:09:12.557Z,97727.78
2023-07-02T06:11:47.041Z,97668.75
2023-07-02T06:14:29.240Z,97691.69
2023-07-02T06:17:36.169Z,97710.91
2023-07-02T06:44:24.745Z,97682.94
2023-07-02T06:50:05.622Z,97690.53
2023-07-02T06:52:56.269Z,97702.63
2023-07-02T06:55:35.355Z,97677.94
2023-07-02T06:58:26.254Z,97671.31
2023-07-02T07:01:13.880Z,97677.66
2023-07-02T07:03:42.066Z,97687.44
2023-07-02T07:12:50.216Z,97694.28
2023-07-02T07:15:26.051Z,97687.94
2023-07-02T07:18:14.800Z,97688.28
2023-07-02T07:20:58.964Z,97695.41
2023-07-02T07:23:34.484Z,97687.78
2023-07-02T07:26:02.414Z,97703.97
2023-07-02T07:28:33.937Z,97714.03
2023-07-02T07:36:12.918Z,97726.78
2023-07-02T07:38:51.141Z,97750.88
2023-07-02T07:41:32.802Z,97728.28
2023-07-02T07:52:22.626Z,97759.59
2023-07-02T07:57:32.479Z,97737.84
2023-07-02T08:00:02.114Z,97745.94
2023-07-02T08:05:31.738Z,97730.34
2023-07-02T08:10:43.023Z,97726.53
2023-07-02T08:13:10.734Z,97744.03
2023-07-02T08:20:05.827Z,97722.44
2023-07-02T08:22:45.457Z,97744.56
2023-07-02T08:25:32.249Z,97722.06
2023-07-02T08:28:12.616Z,97724.13
2023-07-02T08:30:47.824Z,97725.22
2023-07-02T08:33:19.317Z,97733.56
2023-07-02T08:35:59.766Z,97713.69
2023-07-02T08:38:38.172Z,97730.03
2023-07-02T08:41:26.629Z,97734.06
2023-07-02T08:44:08.244Z,97761.53
2023-07-02T09:13:26.083Z,97746.81
2023-07-02T09:15:56.418Z,97753.16
2023-07-02T09:18:28.101Z,97767.09
2023-07-02T09:20:55.964Z,97759.66
2023-07-02T09:31:17.402Z,97768.78
2023-07-02T09:34:03.351Z,97759.06
2023-07-02T09:36:45.149Z,97727.66
2023-07-02T09:39:26.111Z,97738.88
2023-07-02T09:42:04.770Z,97765.56
2023-07-02T09:44:37.352Z,97730.41
2023-07-02T09:47:11.718Z,97761.13
2023-07-02T09:49:58.048Z,97770.41
2023-07-02T09:52:30.244Z,97720.19
2023-07-02T09:55:05.413Z,97769.28
2023-07-02T09:57:38.986Z,97722.91
2023-07-02T10:00:26.943Z,97737.47
2023-07-02T10:03:05.246Z,97734.81
2023-07-02T10:05:37.306Z,97745.94
2023-07-02T10:08:22.743Z,97723.38
2023-07-02T10:11:08.377Z,97722.25
2023-07-02T10:13:36.434Z,97735.22
2023-07-02T10:16:07.626Z,97771.19
2023-07-02T10:18:35.671Z,97772.22
2023-07-02T10:21:16.086Z,97739.25
2023-07-02T10:23:43.618Z,97748.47
2023-07-02T10:26:18.524Z,97752.63
2023-07-02T10:28:59.339Z,97762.91
2023-07-02T10:31:38.935Z,97776.38
2023-07-02T10:34:07.180Z,97732.94
2023-07-02T10:39:25.216Z,97756.78
2023-07-02T10:41:53.012Z,97727.16
2023-07-02T10:44:20.218Z,97750.72
2023-07-02T10:46:49.265Z,97754.31
2023-07-02T10:52:08.954Z,97760.75
2023-07-02T10:54:47.811Z,97741.28
2023-07-02T10:57:23.372Z,97757.03
2023-07-02T10:59:50.781Z,97757.72
2023-07-02T11:02:19.057Z,97760.63
2023-07-02T11:08:38.635Z,97761.34
2023-07-02T12:28:29.794Z,97770.31
2023-07-02T12:30:57.690Z,97765.03
2023-07-02T12:33:25.089Z,97759.81
2023-07-02T12:35:53.408Z,97774.16
2023-07-02T12:38:20.899Z,97789.78
2023-07-02T12:40:51.436Z,97756.53
2023-07-02T12:43:48.169Z,97778.19
2023-07-02T12:46:24.861Z,97801.69
2023-07-02T12:53:25.275Z,97786.44
2023-07-02T12:55:56.486Z,97780.00
2023-07-02T12:58:25.104Z,97783.59
2023-07-02T13:03:37.733Z,97779.41
2023-07-02T13:06:06.347Z,97762.63
2023-07-02T13:08:33.841Z,97782.72
2023-07-02T13:11:03.684Z,97762.34
2023-07-02T13:13:30.884Z,97776.00
2023-07-02T13:15:59.238Z,97786.84
2023-07-02T13:18:28.369Z,97774.25
2023-07-02T13:20:55.646Z,97765.34
2023-07-02T13:23:23.030Z,97773.63
2023-07-02T13:26:31.014Z,97752.47
2023-07-02T13:28:58.447Z,97783.88
2023-07-02T13:31:25.912Z,97771.25
2023-07-02T13:33:53.080Z,97777.22
2023-07-02T13:36:20.656Z,97758.63
2023-07-02T13:38:48.060Z,97759.53
2023-07-02T13:41:15.273Z,97761.53
2023-07-02T13:43:42.473Z,97757.25
2023-07-02T13:46:12.693Z,97754.66
2023-07-02T13:48:40.212Z,97758.97
2023-07-02T13:51:09.408Z,97772.31
2023-07-02T13:53:37.254Z,97775.63
2023-07-02T13:56:04.698Z,97786.16
2023-07-02T13:58:59.667Z,97778.94
2023-07-02T14:01:29.035Z,97785.47
2023-07-02T14:03:57.154Z,97779.66
2023-07-02T14:06:24.590Z,97786.06
2023-07-02T14:08:51.854Z,97780.38
2023-07-02T14:11:22.390Z,97772.06
2023-07-02T14:13:52.418Z,97765.28
2023-07-02T14:16:24.689Z,97763.78
2023-07-02T14:19:02.742Z,97780.59
2023-07-02T14:21:31.580Z,97776.28
2023-07-02T14:23:59.976Z,97780.50
2023-07-02T14:26:27.827Z,97778.75
2023-07-02T14:28:55.385Z,97784.25
2023-07-02T14:31:22.988Z,97788.59
2023-07-02T14:33:50.301Z,97785.13
2023-07-02T14:36:18.061Z,97773.16
2023-07-02T14:38:45.644Z,97778.31
2023-07-02T14:41:12.861Z,97770.44
2023-07-02T14:43:42.153Z,97749.41
2023-07-02T14:46:09.568Z,97780.13
2023-07-02T14:48:37.290Z,97778.72
2023-07-02T14:51:05.187Z,97796.91
2023-07-02T14:53:33.237Z,97789.31
2023-07-02T14:58:44.452Z,97769.53
2023-07-02T15:03:53.307Z,97778.84
2023-07-02T15:06:23.913Z,97782.22
2023-07-02T15:08:52.769Z,97791.94
2023-07-02T15:27:39.706Z,97783.72
2023-07-02T15:35:31.250Z,97794.44
2023-07-02T15:43:21.312Z,97792.41
2023-07-02T15:48:59.151Z,97796.44
2023-07-02T15:51:26.764Z,97779.28
2023-07-02T15:53:54.102Z,97786.34
2023-07-02T15:56:21.778Z,97796.75
2023-07-02T16:17:41.486Z,97797.81
2023-07-02T16:20:12.626Z,97789.16
2023-07-02T16:22:40.163Z,97782.69
2023-07-02T16:25:07.863Z,97790.94
2023-07-02T16:30:17.614Z,97790.28
2023-07-02T16:32:49.200Z,97787.63
2023-07-02T16:40:39.754Z,97779.50
2023-07-02T16:43:07.715Z,97783.84
2023-07-02T16:45:37.454Z,97794.03
2023-07-02T17:33:12.703Z,97816.06
2023-07-02T17:35:43.989Z,97821.41
2023-07-02T17:38:14.469Z,97830.75
2023-07-02T17:40:42.574Z,97811.59
2023-07-02T17:43:11.748Z,97827.88
2023-07-02T17:45:39.275Z,97813.66
2023-07-02T17:48:06.743Z,97816.31
2023-07-02T17:50:34.333Z,97816.16
2023-07-02T17:53:02.018Z,97840.16
2023-07-02T17:55:29.975Z,97862.03
2023-07-02T17:57:58.449Z,97839.34
2023-07-02T18:00:26.143Z,97838.03
2023-07-02T18:02:53.881Z,97848.75
2023-07-02T18:10:53.576Z,97855.56
2023-07-02T18:16:05.849Z,97852.53
2023-07-02T18:58:45.133Z,97861.81
2023-07-02T19:01:39.850Z,97874.97
2023-07-02T19:04:36.789Z,97860.31
2023-07-02T19:40:03.370Z,97856.06
2023-07-02T19:42:31.454Z,97842.88
2023-07-02T20:27:19.487Z,97852.91
2023-07-02T21:21:37.159Z,97860.25
2023-07-02T22:37:13.605Z,97832.84
2023-07-02T22:39:42.820Z,97830.16
2023-07-02T22:42:10.597Z,97826.34
2023-07-02T22:44:37.708Z,97829.06
2023-07-02T22:47:05.290Z,97814.41
2023-07-02T22:49:34.560Z,97817.66
2023-07-02T22:52:03.566Z,97821.44
2023-07-02T22:54:32.271Z,97819.28
2023-07-02T22:57:00.386Z,97805.44
2023-07-02T22:59:29.462Z,97810.56
2023-07-02T23:01:56.790Z,97809.44
2023-07-02T23:04:24.693Z,97807.00
2023-07-02T23:06:52.233Z,97814.31
2023-07-02T23:09:20.457Z,97804.56
2023-07-02T23:11:48.530Z,97814.28
2023-07-02T23:14:15.872Z,97790.41
2023-07-02T23:16:44.703Z,97816.44
2023-07-02T23:19:12.541Z,97799.13
2023-07-02T23:21:46.790Z,97803.69
2023-07-02T23:24:14.873Z,97787.97
2023-07-02T23:26:42.423Z,97808.31
2023-07-02T23:29:10.100Z,97803.44
2023-07-02T23:31:38.002Z,97804.78
